Time;durP1;ratioP1;P1;durP2;ratioP2;P2;SDS_P1;SDS_P2;PMS_P1;PMS_P2;Temp;Humidity;BMP_temperature;BMP_pressure;BME280_temperature;BME280_humidity;BME280_pressure;Samples;Min_cycle;Max_cycle;Signal;HPM_P1;HPM_P2
2023/04/29 04:22:32;;;;;;;7.60;4.53;;;;;;;11.76;100.00;100012.97;5089519;28;20747;-65
2023/04/29 04:25:13;;;;;;;9.30;5.03;;;;;;;11.84;100.00;100028.91;5088248;28;20135;-66
2023/04/29 04:27:40;;;;;;;9.75;5.43;;;;;;;11.80;100.00;100022.22;5087935;28;20124;-66
2023/04/29 04:30:09;;;;;;;13.90;5.55;;;;;;;11.72;100.00;100033.84;5088066;28;20516;-66
2023/04/29 04:32:35;;;;;;;11.65;5.03;;;;;;;11.67;100.00;100034.41;5089397;28;20119;-66
2023/04/29 04:35:01;;;;;;;10.27;5.30;;;;;;;11.67;100.00;100028.22;5088061;28;20198;-66
2023/04/29 04:37:27;;;;;;;13.18;5.47;;;;;;;11.61;100.00;100037.81;5087766;28;20040;-67
2023/04/29 04:39:55;;;;;;;10.23;5.20;;;;;;;11.57;100.00;100043.69;5088028;28;20036;-67
2023/04/29 04:42:22;;;;;;;10.40;5.18;;;;;;;11.54;100.00;100041.38;5087945;28;20446;-67
2023/04/29 04:44:49;;;;;;;12.48;5.50;;;;;;;11.55;100.00;100048.41;5087976;28;20032;-67
2023/04/29 04:47:26;;;;;;;9.43;5.10;;;;;;;11.54;100.00;100055.59;5087583;28;20531;-65
2023/04/29 04:49:59;;;;;;;8.68;5.00;;;;;;;11.45;100.00;100069.19;5087889;28;20071;-67
2023/04/29 04:52:25;;;;;;;9.55;4.70;;;;;;;11.50;100.00;100064.94;5089150;28;20064;-67
2023/04/29 04:55:16;;;;;;;11.95;5.25;;;;;;;11.44;100.00;100064.84;5087608;28;20031;-67
2023/04/29 04:57:44;;;;;;;11.23;5.57;;;;;;;11.43;100.00;100081.88;5087357;28;20043;-67
2023/04/29 05:00:11;;;;;;;8.75;4.13;;;;;;;11.41;100.00;100080.22;5087684;28;20520;-67
2023/04/29 05:02:36;;;;;;;8.50;4.50;;;;;;;11.49;100.00;100084.63;5087518;28;20048;-66
2023/04/29 05:05:02;;;;;;;7.60;4.60;;;;;;;11.46;100.00;100090.31;5087542;28;20137;-66
2023/04/29 05:07:32;;;;;;;8.13;4.32;;;;;;;11.47;100.00;100091.16;5087261;28;20089;-67
2023/04/29 05:10:03;;;;;;;5.95;3.90;;;;;;;11.55;100.00;100091.09;5087500;28;20039;-67
2023/04/29 05:12:31;;;;;;;;;;;;;;;11.47;100.00;100091.16;5087830;28;20043;-66
2023/04/29 05:14:58;;;;;;;12.15;4.60;;;;;;;11.50;100.00;100102.28;5070587;28;20407;-66
2023/04/29 05:17:25;;;;;;;12.10;4.55;;;;;;;11.58;100.00;100102.19;5086950;28;20040;-66
2023/04/29 05:19:51;;;;;;;7.70;4.68;;;;;;;11.58;100.00;100107.53;5087318;28;20620;-67
2023/04/29 05:22:16;;;;;;;10.07;3.67;;;;;;;11.69;100.00;100108.94;5088477;28;20032;-67
2023/04/29 05:24:42;;;;;;;8.02;4.72;;;;;;;11.73;100.00;100104.88;5087136;28;20119;-66
2023/04/29 05:27:07;;;;;;;8.18;4.43;;;;;;;11.79;100.00;100108.63;5072758;28;20459;-66
2023/04/29 05:29:33;;;;;;;8.00;4.22;;;;;;;11.87;100.00;100106.75;5066773;28;20545;-69
2023/04/29 05:32:01;;;;;;;;;;;;;;;11.95;100.00;100108.50;5064108;28;20041;-69
2023/04/29 05:34:27;;;;;;;8.60;4.15;;;;;;;12.02;100.00;100105.91;5053426;28;19917;-69
2023/04/29 05:36:52;;;;;;;9.60;5.30;;;;;;;12.04;100.00;100110.03;5054854;28;20037;-69
2023/04/29 05:39:18;;;;;;;7.65;4.32;;;;;;;12.01;100.00;100112.28;5053218;28;20071;-68
2023/04/29 05:41:56;;;;;;;10.20;4.65;;;;;;;12.05;100.00;100116.22;5053411;28;20037;-69
2023/04/29 05:44:35;;;;;;;7.20;3.67;;;;;;;12.09;100.00;100114.84;5053245;28;20033;-58
2023/04/29 05:47:00;;;;;;;9.45;4.28;;;;;;;12.10;100.00;100111.16;5052939;28;20036;-62
2023/04/29 05:49:25;;;;;;;9.40;3.97;;;;;;;12.06;100.00;100121.38;5020036;28;20041;-58
2023/04/29 05:51:51;;;;;;;9.75;4.18;;;;;;;12.06;100.00;100121.38;5054360;28;20140;-60
2023/04/29 05:54:16;;;;;;;10.07;3.80;;;;;;;12.18;100.00;100129.72;5054384;28;20453;-62
2023/04/29 05:56:44;;;;;;;10.32;4.25;;;;;;;12.20;100.00;100128.53;5052950;28;20037;-63
2023/04/29 05:59:09;;;;;;;7.75;3.65;;;;;;;12.20;100.00;100139.22;5052752;28;20048;-62
2023/04/29 06:01:35;;;;;;;9.30;4.45;;;;;;;12.26;100.00;100145.66;5052860;28;20124;-66
2023/04/29 06:04:00;;;;;;;7.85;3.83;;;;;;;12.26;100.00;100147.47;5053029;28;20091;-64
2023/04/29 06:06:38;;;;;;;5.82;3.63;;;;;;;12.27;100.00;100149.16;5052805;28;20033;-63
2023/04/29 06:09:25;;;;;;;5.50;3.60;;;;;;;12.40;100.00;100147.47;5054091;28;20040;-62
2023/04/29 06:11:51;;;;;;;4.88;3.17;;;;;;;12.44;100.00;100150.59;5052693;28;20515;-61
2023/04/29 06:14:19;;;;;;;6.20;3.20;;;;;;;12.40;100.00;100150.16;5052785;28;20581;-63
2023/04/29 06:16:44;;;;;;;6.05;2.85;;;;;;;12.57;100.00;100156.09;5035913;28;20045;-66
2023/04/29 06:19:10;;;;;;;8.00;3.80;;;;;;;12.69;100.00;100159.91;5052387;28;20036;-62
2023/04/29 06:21:35;;;;;;;9.43;3.67;;;;;;;12.76;100.00;100160.00;5053780;28;20398;-62
2023/04/29 06:24:01;;;;;;;6.07;3.13;;;;;;;12.80;100.00;100160.47;5052533;28;20120;-65
2023/04/29 06:26:26;;;;;;;6.53;3.40;;;;;;;12.79;100.00;100166.81;5052469;28;20136;-59
2023/04/29 06:28:53;;;;;;;6.05;2.92;;;;;;;12.86;100.00;100162.38;5052125;28;20041;-62
2023/04/29 06:31:18;;;;;;;3.97;2.90;;;;;;;12.90;100.00;100172.47;5052342;28;20033;-62
2023/04/29 06:33:43;;;;;;;5.88;3.35;;;;;;;12.91;100.00;100168.81;5052490;28;20409;-61
2023/04/29 06:36:09;;;;;;;6.47;3.45;;;;;;;12.91;100.00;100176.81;5052236;28;20398;-65
2023/04/29 06:38:53;;;;;;;5.00;2.67;;;;;;;12.98;100.00;100183.06;5053256;28;20102;-62
2023/04/29 06:41:48;;;;;;;6.22;3.20;;;;;;;13.06;100.00;100184.78;5044758;28;20112;-62
2023/04/29 06:44:31;;;;;;;5.55;2.92;;;;;;;13.12;100.00;100188.53;5051531;28;20033;-61
2023/04/29 06:47:19;;;;;;;;;;;;;;;13.19;100.00;100190.25;5052138;28;20072;-62
2023/04/29 06:49:53;;;;;;;5.13;3.05;;;;;;;13.16;100.00;100177.25;5052270;28;19920;-65
2023/04/29 06:52:20;;;;;;;5.72;3.30;;;;;;;13.21;100.00;100196.25;5053395;28;20037;-62
2023/04/29 06:54:47;;;;;;;5.10;3.00;;;;;;;13.26;100.00;100199.19;5051974;28;20501;-58
2023/04/29 06:57:12;;;;;;;5.25;2.78;;;;;;;13.27;100.00;100190.16;5051498;28;20084;-63
2023/04/29 06:59:37;;;;;;;5.75;3.17;;;;;;;13.37;100.00;100200.53;5035255;28;20033;-63
2023/04/29 07:02:03;;;;;;;5.47;2.70;;;;;;;13.30;100.00;100195.13;5051849;28;20028;-61
2023/04/29 07:04:29;;;;;;;6.38;3.05;;;;;;;13.36;100.00;100214.09;5053062;28;20098;-61
2023/04/29 07:06:54;;;;;;;7.38;2.90;;;;;;;13.36;100.00;100203.38;5051794;28;20542;-61
2023/04/29 07:09:22;;;;;;;5.57;3.25;;;;;;;13.49;100.00;100204.31;5052883;28;20044;-63
2023/04/29 07:11:47;;;;;;;6.00;2.78;;;;;;;13.51;100.00;100206.84;5052973;28;20037;-60
2023/04/29 07:14:13;;;;;;;6.10;2.95;;;;;;;13.49;100.00;100207.00;5051538;28;20049;-64
2023/04/29 07:16:38;;;;;;;5.07;3.03;;;;;;;13.57;100.00;100214.09;5052688;28;20051;-64
2023/04/29 07:19:08;;;;;;;7.80;2.60;;;;;;;13.63;100.00;100220.50;5051499;28;20087;-63
2023/04/29 07:21:34;;;;;;;4.75;2.80;;;;;;;13.75;100.00;100218.94;5052788;28;20045;-60
2023/04/29 07:24:01;;;;;;;5.70;2.72;;;;;;;13.79;100.00;100226.41;5051651;28;20025;-60
2023/04/29 07:26:27;;;;;;;3.47;2.38;;;;;;;13.89;100.00;100227.91;5052646;28;20108;-62
2023/04/29 07:28:53;;;;;;;6.97;3.05;;;;;;;13.91;100.00;100237.41;5050942;28;20505;-65
2023/04/29 07:31:19;;;;;;;7.60;2.67;;;;;;;14.10;100.00;100238.56;5051197;28;20041;-64
2023/04/29 07:33:46;;;;;;;7.05;3.33;;;;;;;14.16;98.15;100242.31;5051355;28;20441;-59
2023/04/29 07:36:11;;;;;;;6.47;3.15;;;;;;;14.21;100.00;100231.81;5052391;28;20451;-62
2023/04/29 07:38:37;;;;;;;5.68;2.63;;;;;;;14.22;97.16;100228.97;5050922;28;20124;-62
2023/04/29 07:41:05;;;;;;;7.68;2.63;;;;;;;14.24;96.14;100237.63;5051162;28;20545;-63
2023/04/29 07:43:31;;;;;;;4.60;2.67;;;;;;;14.29;94.47;100235.19;5050887;28;20037;-64
2023/04/29 07:45:56;;;;;;;5.03;2.95;;;;;;;14.31;96.46;100243.03;5051036;28;20040;-62
2023/04/29 07:48:22;;;;;;;5.70;2.70;;;;;;;14.23;93.76;100245.88;5050742;28;20054;-62
2023/04/29 07:50:47;;;;;;;6.38;2.58;;;;;;;14.17;93.96;100252.84;5051165;28;20116;-65
2023/04/29 07:53:16;;;;;;;4.03;2.30;;;;;;;14.19;95.15;100245.41;5051002;28;20410;-62
2023/04/29 07:55:42;;;;;;;4.10;2.47;;;;;;;14.25;95.25;100244.63;5051917;28;20505;-63
2023/04/29 07:58:07;;;;;;;4.18;2.63;;;;;;;14.30;93.60;100244.06;5050458;28;20037;-63
2023/04/29 08:00:33;;;;;;;3.90;2.42;;;;;;;14.43;92.90;100254.84;5050924;28;20051;-61
2023/04/29 08:02:58;;;;;;;3.83;2.28;;;;;;;14.49;92.24;100251.41;5050849;28;20045;-63
2023/04/29 08:05:25;;;;;;;3.60;2.35;;;;;;;14.60;92.04;100258.03;5050747;28;20028;-64
2023/04/29 08:07:50;;;;;;;5.50;2.67;;;;;;;14.72;91.56;100256.44;5051739;28;20496;-59
2023/04/29 08:10:18;;;;;;;4.50;2.45;;;;;;;14.82;90.19;100259.59;5050739;28;20033;-62
2023/04/29 08:12:47;;;;;;;3.83;2.75;;;;;;;14.84;90.70;100252.16;5051936;28;20041;-61
2023/04/29 08:15:12;;;;;;;3.67;2.70;;;;;;;14.86;85.61;100258.16;5058024;28;20489;-63
2023/04/29 08:17:38;;;;;;;5.15;2.47;;;;;;;14.87;85.41;100257.13;5068943;28;20083;-65
2023/04/29 08:20:04;;;;;;;7.50;2.55;;;;;;;14.83;85.66;100255.06;5066595;28;20086;-62
2023/04/29 08:22:29;;;;;;;3.05;2.08;;;;;;;14.91;86.95;100258.38;5068194;28;20039;-58
2023/04/29 08:24:55;;;;;;;5.72;2.40;;;;;;;14.93;89.30;100260.84;5071940;28;20504;-54
2023/04/29 08:27:20;;;;;;;3.92;2.53;;;;;;;15.05;90.22;100261.91;5071430;28;20048;-52
2023/04/29 08:29:46;;;;;;;5.78;3.08;;;;;;;15.06;89.73;100263.59;5071903;28;20047;-52
2023/04/29 08:32:12;;;;;;;4.88;2.33;;;;;;;15.14;89.50;100259.91;5071742;28;20033;-52
2023/04/29 08:34:37;;;;;;;4.38;2.35;;;;;;;15.08;87.45;100264.22;5071774;28;20075;-54
2023/04/29 08:37:03;;;;;;;5.82;2.63;;;;;;;15.07;86.04;100262.56;5071525;28;20064;-60
2023/04/29 08:39:29;;;;;;;3.95;2.42;;;;;;;15.18;85.84;100270.00;5071612;28;20075;-61
2023/04/29 08:41:58;;;;;;;3.83;2.55;;;;;;;15.32;88.02;100270.88;5071713;28;20381;-63
2023/04/29 08:44:28;;;;;;;4.22;2.45;;;;;;;15.28;82.75;100272.31;5068480;28;20064;-69
2023/04/29 08:46:54;;;;;;;3.78;2.45;;;;;;;15.40;84.84;100270.69;5071508;28;20040;-63
2023/04/29 08:49:20;;;;;;;3.47;2.22;;;;;;;15.56;82.16;100260.59;5071436;28;20087;-61
2023/04/29 08:51:53;;;;;;;6.15;3.33;;;;;;;15.56;82.14;100263.28;5071662;28;20048;-62
2023/04/29 08:54:18;;;;;;;4.43;2.75;;;;;;;15.47;81.34;100274.22;5071626;28;20048;-59
2023/04/29 08:56:45;;;;;;;4.35;2.47;;;;;;;15.87;81.44;100263.53;5071350;28;20036;-60
2023/04/29 08:59:13;;;;;;;3.38;2.30;;;;;;;16.14;77.88;100261.63;5071461;28;20033;-62
2023/04/29 09:01:41;;;;;;;6.45;2.50;;;;;;;16.08;77.92;100264.31;5071508;28;20488;-63
2023/04/29 09:04:25;;;;;;;2.97;2.08;;;;;;;16.02;77.49;100268.66;5071523;28;20036;-57
2023/04/29 09:06:52;;;;;;;6.57;3.35;;;;;;;15.93;75.19;100268.06;5071309;28;20123;-58
2023/04/29 09:09:18;;;;;;;6.45;2.65;;;;;;;15.82;74.91;100276.72;5074904;28;20119;-61
2023/04/29 09:11:44;;;;;;;3.30;2.13;;;;;;;15.84;76.24;100271.97;5073957;28;20413;-62
2023/04/29 09:14:09;;;;;;;8.20;3.33;;;;;;;15.73;77.62;100270.75;5075129;28;20037;-59
2023/04/29 09:16:37;;;;;;;2.63;2.10;;;;;;;15.67;80.19;100278.81;5074998;28;20037;-63
2023/04/29 09:19:02;;;;;;;2.53;1.90;;;;;;;15.52;80.67;100283.47;5074809;28;20036;-63
2023/04/29 09:21:31;;;;;;;3.35;2.50;;;;;;;15.44;80.90;100284.50;5075294;28;20390;-63
2023/04/29 09:24:01;;;;;;;3.75;2.40;;;;;;;15.22;81.24;100286.53;5074913;28;20047;-61
2023/04/29 09:26:39;;;;;;;5.15;2.30;;;;;;;15.05;82.36;100286.06;5074722;28;20075;-59
2023/04/29 09:29:12;;;;;;;3.03;2.08;;;;;;;15.08;82.81;100292.91;5074577;28;20115;-59
2023/04/29 09:31:39;;;;;;;3.25;2.63;;;;;;;15.00;82.93;100285.03;5074779;28;20044;-63
2023/04/29 09:34:05;;;;;;;3.63;2.92;;;;;;;14.91;83.08;100285.19;5074726;28;20157;-64
2023/04/29 09:36:37;;;;;;;3.97;2.60;;;;;;;14.96;83.54;100283.78;5074621;28;20487;-64
2023/04/29 09:39:10;;;;;;;3.30;1.98;;;;;;;14.97;85.75;100285.44;5074381;28;20045;-64
2023/04/29 09:41:42;;;;;;;2.97;2.35;;;;;;;14.92;84.98;100286.84;5074642;28;20393;-65
2023/04/29 09:44:09;;;;;;;4.13;2.60;;;;;;;14.85;83.29;100291.34;5074523;28;20032;-65
2023/04/29 09:46:35;;;;;;;4.30;2.63;;;;;;;14.90;85.99;100288.09;5074297;28;20032;-64
2023/04/29 09:49:22;;;;;;;4.65;2.50;;;;;;;14.87;84.50;100293.84;5074189;28;20119;-65
2023/04/29 09:51:52;;;;;;;4.57;2.42;;;;;;;14.80;84.55;100291.16;5074457;28;20032;-65
2023/04/29 09:54:23;;;;;;;6.60;2.40;;;;;;;14.92;85.66;100292.22;5074356;28;20146;-65
2023/04/29 09:56:51;;;;;;;3.67;2.15;;;;;;;14.83;84.48;100287.22;5074154;28;20386;-62
2023/04/29 09:59:18;;;;;;;3.92;2.63;;;;;;;14.84;84.57;100296.94;5074176;28;20059;-64
2023/04/29 10:01:49;;;;;;;4.53;2.33;;;;;;;14.92;84.56;100296.75;5074314;28;20047;-65
2023/04/29 10:04:16;;;;;;;4.00;2.50;;;;;;;14.89;83.56;100299.84;5074244;28;20119;-65
2023/04/29 10:06:43;;;;;;;2.85;2.05;;;;;;;14.87;83.52;100289.31;5074130;28;20078;-65
2023/04/29 10:09:14;;;;;;;3.80;1.90;;;;;;;15.06;84.68;100294.94;5073986;28;20405;-64
2023/04/29 10:11:41;;;;;;;3.78;2.20;;;;;;;15.08;83.61;100284.84;5074041;28;20041;-65
2023/04/29 10:14:13;;;;;;;4.32;2.60;;;;;;;15.25;83.33;100294.16;5074025;28;20393;-65
2023/04/29 10:16:45;;;;;;;6.40;3.78;;;;;;;15.19;82.43;100289.59;5073959;28;20036;-65
2023/04/29 10:19:14;;;;;;;4.93;2.83;;;;;;;15.22;80.46;100291.09;5073549;28;20077;-65
2023/04/29 10:21:40;;;;;;;6.30;2.70;;;;;;;15.19;81.47;100290.47;5073998;28;20024;-64
2023/04/29 10:24:06;;;;;;;2.58;1.83;;;;;;;15.36;85.37;100292.75;5073725;28;20029;-65
2023/04/29 10:26:33;;;;;;;4.78;2.58;;;;;;;15.43;86.63;100299.78;5073793;28;20033;-65
2023/04/29 10:28:59;;;;;;;4.63;2.47;;;;;;;15.48;83.07;100293.81;5073509;28;20040;-65
2023/04/29 10:31:26;;;;;;;4.53;2.50;;;;;;;15.55;83.62;100304.56;5073606;28;20075;-64
2023/04/29 10:33:56;;;;;;;5.80;3.30;;;;;;;15.71;84.21;100302.38;5073669;28;20063;-64
2023/04/29 10:36:22;;;;;;;5.57;3.65;;;;;;;15.15;82.01;100302.63;5073558;28;20033;-65
2023/04/29 10:38:52;;;;;;;7.60;4.10;;;;;;;14.83;82.16;100304.16;5073271;28;20209;-63
2023/04/29 10:41:24;;;;;;;7.55;4.07;;;;;;;14.96;82.95;100300.69;5074326;28;20507;-64
2023/04/29 10:43:51;;;;;;;7.13;3.80;;;;;;;15.08;82.17;100295.59;5073477;28;20033;-64
2023/04/29 10:46:27;;;;;;;5.32;3.28;;;;;;;15.33;82.19;100296.69;5073395;28;20032;-65
2023/04/29 10:49:00;;;;;;;6.90;3.75;;;;;;;15.37;79.98;100302.47;5073020;28;20060;-65
2023/04/29 10:51:31;;;;;;;5.95;3.17;;;;;;;15.26;78.64;100305.72;5073195;28;20040;-65
2023/04/29 10:54:14;;;;;;;6.95;3.63;;;;;;;15.55;75.74;100318.81;5072092;28;20401;-65
2023/04/29 10:56:48;;;;;;;6.18;3.75;;;;;;;15.97;73.02;100312.28;5073161;28;20042;-65
2023/04/29 10:59:40;;;;;;;5.72;3.80;;;;;;;15.98;73.01;100308.56;5073064;28;20036;-65
2023/04/29 11:02:08;;;;;;;4.80;2.80;;;;;;;16.28;72.67;100297.38;5070939;28;20596;-65
2023/04/29 11:04:33;;;;;;;;;;;;;;;16.91;68.98;100294.13;5073477;28;20040;-65
2023/04/29 11:07:01;;;;;;;5.43;3.30;;;;;;;17.14;66.31;100286.34;5072690;28;19916;-64
2023/04/29 11:09:29;;;;;;;8.07;3.75;;;;;;;16.55;67.29;100282.81;5070440;28;20050;-62
2023/04/29 11:11:55;;;;;;;;;;;;;;;16.12;72.17;100287.88;5073062;28;20041;-62
2023/04/29 11:14:23;;;;;;;6.68;3.47;;;;;;;16.39;70.03;100291.34;5072698;28;20316;-61
2023/04/29 11:16:55;;;;;;;7.18;4.03;;;;;;;16.35;69.62;100289.28;5062855;28;20044;-62
2023/04/29 11:19:29;;;;;;;5.85;3.08;;;;;;;16.16;71.54;100288.28;5062931;28;20043;-63
2023/04/29 11:22:12;;;;;;;6.15;3.33;;;;;;;16.06;71.96;100290.59;5062060;28;20116;-62
2023/04/29 11:25:06;;;;;;;5.88;3.42;;;;;;;15.87;73.06;100295.75;5062500;28;20044;-62
2023/04/29 11:27:36;;;;;;;5.80;3.30;;;;;;;15.69;74.79;100293.66;5061377;28;20027;-61
2023/04/29 11:30:05;;;;;;;5.63;3.47;;;;;;;15.46;77.36;100302.09;5060498;28;20514;-62
2023/04/29 11:32:35;;;;;;;5.43;3.55;;;;;;;15.38;75.98;100302.25;5062664;28;20112;-62
2023/04/29 11:35:11;;;;;;;5.85;3.42;;;;;;;15.53;75.97;100302.09;5062824;28;20029;-62
2023/04/29 11:37:37;;;;;;;6.70;3.80;;;;;;;15.36;76.58;100303.50;5061853;28;20123;-63
2023/04/29 11:40:05;;;;;;;5.68;3.47;;;;;;;15.23;78.57;100298.91;5060839;28;20040;-62
2023/04/29 11:42:33;;;;;;;9.23;4.55;;;;;;;15.31;76.26;100303.28;5062602;28;20453;-61
2023/04/29 11:44:59;;;;;;;6.50;3.67;;;;;;;14.98;78.22;100306.69;5062473;28;20029;-63
2023/04/29 11:47:27;;;;;;;9.63;4.88;;;;;;;15.11;76.63;100312.09;5060294;28;20040;-62
2023/04/29 11:49:53;;;;;;;9.85;4.75;;;;;;;15.09;77.22;100306.09;5062110;28;20037;-61
2023/04/29 11:52:19;;;;;;;4.72;3.55;;;;;;;14.97;78.00;100306.88;5062352;28;20036;-61
2023/04/29 11:54:46;;;;;;;10.80;4.00;;;;;;;15.02;76.99;100304.44;5060668;28;20032;-64
2023/04/29 11:57:11;;;;;;;8.73;4.63;;;;;;;15.19;77.17;100311.06;5061896;28;20032;-62
2023/04/29 11:59:37;;;;;;;8.00;3.47;;;;;;;15.18;77.00;100312.94;5061901;28;20117;-63
2023/04/29 12:02:02;;;;;;;7.07;3.22;;;;;;;15.10;76.60;100310.44;5072035;28;20032;-61
2023/04/29 12:04:28;;;;;;;5.80;3.60;;;;;;;15.13;77.89;100310.06;5072099;28;20052;-62
2023/04/29 12:06:56;;;;;;;5.22;2.53;;;;;;;15.16;78.18;100317.69;5071778;28;20040;-61
2023/04/29 12:09:22;;;;;;;5.35;2.97;;;;;;;15.23;75.16;100319.56;5071991;28;20072;-61
2023/04/29 12:11:49;;;;;;;4.50;2.60;;;;;;;15.11;75.02;100320.13;5071721;28;20083;-63
2023/04/29 12:14:15;;;;;;;4.93;2.70;;;;;;;15.17;75.94;100318.50;5072092;28;20036;-50
2023/04/29 12:16:41;;;;;;;7.57;3.22;;;;;;;15.00;76.68;100319.91;5071699;28;20040;-52
2023/04/29 12:19:09;;;;;;;5.40;2.83;;;;;;;14.82;75.26;100315.91;5071717;28;20036;-54
2023/04/29 12:21:35;;;;;;;5.85;3.20;;;;;;;14.93;74.44;100330.56;5071778;28;20127;-55
2023/04/29 12:24:01;;;;;;;5.65;3.30;;;;;;;15.00;74.14;100320.72;5071876;28;20086;-63
2023/04/29 12:26:29;;;;;;;4.03;2.20;;;;;;;14.90;75.00;100322.94;5072099;28;20402;-65
2023/04/29 12:28:57;;;;;;;4.78;2.58;;;;;;;14.98;76.46;100328.13;5071629;28;20040;-64
2023/04/29 12:31:23;;;;;;;7.82;3.08;;;;;;;14.79;74.86;100328.88;5071717;28;20048;-63
2023/04/29 12:33:52;;;;;;;4.30;2.47;;;;;;;14.77;74.41;100321.03;5071831;28;20040;-64
2023/04/29 12:36:18;;;;;;;5.43;3.03;;;;;;;14.48;76.34;100323.97;5071895;28;20029;-64
2023/04/29 12:38:46;;;;;;;6.50;3.47;;;;;;;14.71;78.01;100327.19;5071651;28;20040;-64
2023/04/29 12:41:13;;;;;;;7.63;3.53;;;;;;;14.45;77.40;100324.31;5071735;28;20098;-64
2023/04/29 12:43:40;;;;;;;4.63;2.80;;;;;;;14.47;78.50;100325.78;5074527;28;20115;-64
2023/04/29 12:46:06;;;;;;;4.53;2.65;;;;;;;14.69;78.13;100328.41;5075605;28;20048;-63
2023/04/29 12:48:34;;;;;;;6.30;3.33;;;;;;;14.70;76.69;100336.25;5075373;28;20123;-64
2023/04/29 12:51:03;;;;;;;4.82;2.50;;;;;;;14.61;77.37;100332.09;5075521;28;20040;-63
2023/04/29 12:53:30;;;;;;;5.50;2.90;;;;;;;14.77;76.78;100326.38;5075643;28;20033;-63
2023/04/29 12:55:56;;;;;;;5.88;3.55;;;;;;;14.75;75.48;100328.44;5075408;28;20040;-62
2023/04/29 12:58:21;;;;;;;5.57;3.13;;;;;;;14.89;75.06;100324.81;5075641;28;20048;-62
2023/04/29 13:00:47;;;;;;;4.97;2.80;;;;;;;14.81;76.25;100332.19;5075610;28;20037;-64
2023/04/29 13:03:12;;;;;;;5.20;2.92;;;;;;;14.94;76.03;100334.94;5075418;28;20147;-64
2023/04/29 13:05:38;;;;;;;6.80;3.25;;;;;;;14.71;75.75;100337.91;5075348;28;20123;-65
2023/04/29 13:08:07;;;;;;;6.55;3.13;;;;;;;14.89;75.75;100332.03;5074967;28;20032;-65
2023/04/29 13:10:33;;;;;;;4.93;3.13;;;;;;;15.04;76.02;100334.56;5075025;28;20029;-65
2023/04/29 13:12:58;;;;;;;6.57;2.88;;;;;;;15.19;75.76;100345.97;5075025;28;20048;-64
2023/04/29 13:15:24;;;;;;;4.97;2.85;;;;;;;15.12;73.53;100340.56;5073772;28;20090;-63
2023/04/29 13:17:50;;;;;;;3.40;2.15;;;;;;;15.14;73.88;100343.06;5074726;28;20131;-65
2023/04/29 13:20:16;;;;;;;6.18;3.03;;;;;;;14.97;72.92;100326.47;5074872;28;20056;-64
2023/04/29 13:22:43;;;;;;;4.78;3.10;;;;;;;14.97;72.97;100336.38;5075064;28;20032;-62
2023/04/29 13:25:12;;;;;;;4.05;2.88;;;;;;;15.14;73.16;100335.03;5074755;28;20036;-63
2023/04/29 13:27:38;;;;;;;7.15;3.28;;;;;;;15.26;72.45;100346.84;5074534;28;20032;-64
2023/04/29 13:30:07;;;;;;;3.97;2.90;;;;;;;15.26;71.69;100336.09;5074914;28;20119;-64
2023/04/29 13:32:33;;;;;;;5.07;2.58;;;;;;;15.04;71.47;100334.56;5074765;28;20069;-64
2023/04/29 13:34:58;;;;;;;4.63;2.88;;;;;;;15.25;72.67;100338.97;5074710;28;20415;-64
2023/04/29 13:37:24;;;;;;;5.00;2.83;;;;;;;15.33;72.67;100346.84;5074448;28;20052;-65
2023/04/29 13:39:49;;;;;;;5.00;2.20;;;;;;;15.48;71.52;100340.28;5074604;28;20137;-65
2023/04/29 13:42:15;;;;;;;3.35;2.20;;;;;;;15.54;71.16;100353.94;5074541;28;20067;-64
2023/04/29 13:44:43;;;;;;;6.30;3.75;;;;;;;15.31;72.04;100351.56;5074664;28;20040;-65
2023/04/29 13:47:10;;;;;;;5.40;3.08;;;;;;;15.29;72.17;100340.22;5074195;28;20040;-63
2023/04/29 13:49:37;;;;;;;5.93;2.65;;;;;;;15.08;70.96;100343.88;5074417;28;20032;-65
2023/04/29 13:52:03;;;;;;;4.70;3.10;;;;;;;15.07;71.19;100347.59;5074476;28;20382;-64
2023/04/29 13:54:28;;;;;;;4.30;3.15;;;;;;;15.30;71.65;100348.06;5073898;28;20040;-64
2023/04/29 13:56:53;;;;;;;4.90;2.88;;;;;;;15.32;71.39;100353.22;5074218;28;20076;-65
2023/04/29 13:59:19;;;;;;;3.25;2.08;;;;;;;15.46;71.54;100355.78;5074199;28;20048;-63
2023/04/29 14:01:44;;;;;;;6.75;2.95;;;;;;;15.56;69.90;100357.22;5074301;28;20132;-65
2023/04/29 14:04:10;;;;;;;2.85;2.03;;;;;;;15.25;70.53;100355.06;5074273;28;20047;-65
2023/04/29 14:06:36;;;;;;;4.53;2.40;;;;;;;15.26;70.62;100357.56;5072831;28;20040;-64
2023/04/29 14:09:02;;;;;;;4.32;2.42;;;;;;;15.27;70.40;100361.06;5073743;28;20036;-65
2023/04/29 14:11:27;;;;;;;4.82;2.53;;;;;;;15.33;69.89;100361.09;5074029;28;20097;-64
2023/04/29 14:13:53;;;;;;;4.18;2.50;;;;;;;14.98;70.83;100354.94;5074102;28;20056;-65
2023/04/29 14:16:19;;;;;;;3.38;2.30;;;;;;;15.12;72.11;100362.03;5074007;28;20250;-65
2023/04/29 14:18:44;;;;;;;3.97;2.58;;;;;;;14.91;72.92;100365.66;5073639;28;20045;-64
2023/04/29 14:21:10;;;;;;;3.25;2.10;;;;;;;14.59;74.91;100366.28;5073790;28;20039;-64
2023/04/29 14:23:35;;;;;;;3.65;2.33;;;;;;;14.81;74.22;100365.19;5073888;28;20114;-64
2023/04/29 14:26:01;;;;;;;3.85;2.03;;;;;;;14.91;73.47;100364.81;5073834;28;20063;-65
2023/04/29 14:28:26;;;;;;;3.78;2.38;;;;;;;14.88;73.63;100365.25;5073482;28;20040;-65
2023/04/29 14:30:52;;;;;;;3.22;2.17;;;;;;;15.01;72.75;100364.47;5073993;28;20032;-64
2023/04/29 14:33:17;;;;;;;2.65;2.03;;;;;;;14.98;73.51;100383.63;5073677;28;20526;-64
2023/04/29 14:35:42;;;;;;;2.67;1.90;;;;;;;14.89;74.01;100378.44;5073571;28;20048;-64
2023/04/29 14:38:08;;;;;;;2.67;1.85;;;;;;;14.95;74.13;100374.16;5073144;28;20051;-64
2023/04/29 14:40:33;;;;;;;2.78;1.90;;;;;;;15.05;74.05;100384.50;5073587;28;20041;-65
2023/04/29 14:42:58;;;;;;;3.00;2.10;;;;;;;14.78;73.81;100387.03;5073418;28;20044;-64
2023/04/29 14:45:24;;;;;;;3.78;2.25;;;;;;;14.79;75.28;100396.72;5073307;28;20033;-63
2023/04/29 14:47:49;;;;;;;4.25;2.67;;;;;;;14.70;76.93;100395.25;5073044;28;20028;-64
2023/04/29 14:50:15;;;;;;;2.35;1.77;;;;;;;14.42;77.40;100402.44;5073271;28;20033;-63
2023/04/29 14:52:40;;;;;;;3.67;2.15;;;;;;;14.51;76.85;100404.78;5073114;28;20044;-63
2023/04/29 14:55:06;;;;;;;2.53;1.80;;;;;;;14.60;77.29;100400.94;5073364;28;20043;-64
2023/04/29 14:57:32;;;;;;;3.97;2.13;;;;;;;14.53;78.26;100405.41;5072903;28;20074;-64
2023/04/29 14:59:57;;;;;;;3.17;2.08;;;;;;;14.59;78.83;100401.97;5073150;28;20127;-64
2023/04/29 15:02:22;;;;;;;3.55;2.33;;;;;;;14.32;77.66;100406.25;5073147;28;20052;-64
2023/04/29 15:04:48;;;;;;;3.65;2.05;;;;;;;14.47;77.76;100405.38;5072496;28;20080;-64
2023/04/29 15:07:15;;;;;;;2.70;1.65;;;;;;;14.55;78.25;100397.22;5072344;28;20040;-64
2023/04/29 15:09:41;;;;;;;4.80;1.92;;;;;;;14.41;76.68;100409.66;5072905;28;20041;-64
2023/04/29 15:12:07;;;;;;;5.97;2.88;;;;;;;14.39;78.93;100407.13;5072817;28;20033;-64
2023/04/29 15:14:32;;;;;;;3.95;2.38;;;;;;;14.33;79.05;100413.28;5071719;28;20405;-64
2023/04/29 15:16:58;;;;;;;3.25;2.40;;;;;;;14.45;77.59;100402.84;5072480;28;20040;-64
2023/04/29 15:19:25;;;;;;;4.22;2.38;;;;;;;14.35;76.78;100411.25;5072846;28;20036;-64
2023/04/29 15:21:51;;;;;;;7.43;4.55;;;;;;;14.39;78.37;100419.72;5072586;28;20043;-63
2023/04/29 15:24:17;;;;;;;5.50;2.33;;;;;;;14.25;82.07;100417.94;5072714;28;20124;-64
2023/04/29 15:26:42;;;;;;;2.75;1.98;;;;;;;14.33;81.52;100415.13;5072558;28;20559;-63
2023/04/29 15:29:08;;;;;;;3.20;1.92;;;;;;;14.27;77.70;100415.91;5072346;28;20045;-64
2023/04/29 15:31:33;;;;;;;3.15;2.22;;;;;;;14.30;78.18;100413.69;5072454;28;20044;-64
2023/04/29 15:33:59;;;;;;;3.40;2.30;;;;;;;14.20;78.24;100418.53;5072518;28;20082;-64
2023/04/29 15:36:28;;;;;;;4.03;2.35;;;;;;;14.10;77.26;100420.72;5072863;28;20038;-64
2023/04/29 15:38:54;;;;;;;3.60;2.30;;;;;;;14.12;76.70;100422.16;5072136;28;20041;-64
2023/04/29 15:41:20;;;;;;;4.15;2.60;;;;;;;14.12;77.86;100429.38;5072289;28;20035;-64
2023/04/29 15:43:46;;;;;;;5.85;3.63;;;;;;;14.20;77.85;100426.56;5072362;28;20570;-64
2023/04/29 15:46:11;;;;;;;3.78;2.13;;;;;;;14.23;78.11;100430.72;5072573;28;20028;-64
2023/04/29 15:48:37;;;;;;;2.90;2.03;;;;;;;14.24;78.71;100429.69;5072079;28;20507;-64